createdAt,value
2019-05-23T00:01:12.822Z,79.03
2019-05-23T00:04:25.501Z,79.05
2019-05-23T00:07:18.006Z,79.30
2019-05-23T00:10:08.986Z,79.14
2019-05-23T00:13:10.342Z,79.15
2019-05-23T00:15:47.360Z,79.55
2019-05-23T00:18:21.506Z,79.53
2019-05-23T00:20:53.817Z,79.55
2019-05-23T00:23:25.792Z,80.00
2019-05-23T00:25:57.753Z,80.53
2019-05-23T00:28:29.818Z,80.42
2019-05-23T00:31:12.479Z,80.01
2019-05-23T00:33:44.369Z,80.18
2019-05-23T00:36:17.629Z,80.21
2019-05-23T00:38:50.183Z,79.87
2019-05-23T00:41:24.029Z,80.08
2019-05-23T00:43:56.428Z,79.94
2019-05-23T00:46:29.341Z,79.85
2019-05-23T00:49:01.735Z,79.61
2019-05-23T00:51:35.392Z,79.47
2019-05-23T00:54:09.301Z,79.48
2019-05-23T00:56:42.100Z,79.74
2019-05-23T00:59:26.480Z,79.94
2019-05-23T01:01:49.511Z,79.42
2019-05-23T01:04:22.239Z,79.29
2019-05-23T01:06:54.226Z,79.69
2019-05-23T01:09:26.930Z,79.32
2019-05-23T01:11:59.999Z,79.34
2019-05-23T01:14:32.653Z,79.41
2019-05-23T01:17:07.508Z,79.04
2019-05-23T01:19:40.380Z,78.43
2019-05-23T01:22:12.744Z,78.38
2019-05-23T01:24:46.830Z,78.41
2019-05-23T01:27:19.935Z,78.82
2019-05-23T01:29:53.593Z,78.66
2019-05-23T01:32:39.313Z,78.64
2019-05-23T01:35:13.734Z,78.58
2019-05-23T01:37:47.603Z,78.53
2019-05-23T01:40:20.139Z,77.97
2019-05-23T01:42:53.440Z,78.55
2019-05-23T01:45:25.242Z,78.17
2019-05-23T01:47:58.269Z,77.82
2019-05-23T01:50:30.628Z,78.81
2019-05-23T01:53:03.078Z,79.50
2019-05-23T01:55:35.308Z,79.19
2019-05-23T01:58:07.692Z,79.34
2019-05-23T02:00:40.344Z,79.50
2019-05-23T02:03:12.799Z,79.92
2019-05-23T02:05:45.208Z,79.73
2019-05-23T02:08:18.370Z,79.26
2019-05-23T02:10:50.241Z,79.50
2019-05-23T02:13:23.285Z,79.54
2019-05-23T02:15:55.152Z,79.70
2019-05-23T02:18:28.501Z,79.33
2019-05-23T02:21:00.544Z,79.50
2019-05-23T02:23:32.487Z,79.17
2019-05-23T02:26:04.919Z,79.00
2019-05-23T02:28:37.252Z,79.31
2019-05-23T02:31:09.635Z,79.13
2019-05-23T02:33:41.861Z,79.58
2019-05-23T02:36:13.824Z,79.76
2019-05-23T02:38:55.620Z,79.91
2019-05-23T02:41:49.229Z,79.90
2019-05-23T02:44:23.141Z,80.43
2019-05-23T02:47:05.193Z,79.77
2019-05-23T02:49:37.845Z,79.64
2019-05-23T02:52:23.394Z,80.16
2019-05-23T02:54:57.095Z,80.43
2019-05-23T02:57:30.582Z,80.43
2019-05-23T03:00:27.134Z,80.33
2019-05-23T03:03:02.833Z,80.50
2019-05-23T03:05:37.517Z,79.98
2019-05-23T03:08:12.770Z,79.68
2019-05-23T03:11:09.885Z,79.51
2019-05-23T03:13:41.961Z,79.03
2019-05-23T03:16:19.659Z,79.11
2019-05-23T03:18:58.158Z,79.51
2019-05-23T03:21:31.056Z,76.60
2019-05-23T03:24:04.780Z,76.54
2019-05-23T03:27:00.587Z,76.98
2019-05-23T03:29:34.652Z,76.82
2019-05-23T03:32:36.901Z,76.34
2019-05-23T03:35:30.634Z,75.52
2019-05-23T03:38:03.898Z,75.81
2019-05-23T03:40:36.636Z,77.06
2019-05-23T03:43:09.562Z,76.23
2019-05-23T03:45:47.748Z,76.76
2019-05-23T03:48:20.862Z,76.83
2019-05-23T03:50:55.107Z,76.15
2019-05-23T03:53:28.865Z,76.15
2019-05-23T03:56:01.423Z,77.14
2019-05-23T03:58:33.706Z,76.37
2019-05-23T04:01:07.979Z,76.67
2019-05-23T04:03:40.731Z,76.13
2019-05-23T04:06:14.013Z,76.73
2019-05-23T04:08:45.876Z,75.94
2019-05-23T04:11:18.017Z,76.23
2019-05-23T04:13:50.012Z,75.72
2019-05-23T04:16:23.054Z,75.90
2019-05-23T04:18:55.896Z,76.12
2019-05-23T04:21:27.747Z,75.64
2019-05-23T04:23:59.551Z,76.40
2019-05-23T04:26:31.343Z,76.10
2019-05-23T04:29:03.175Z,76.02
2019-05-23T04:31:35.325Z,75.79
2019-05-23T04:34:07.151Z,75.63
2019-05-23T04:36:38.935Z,75.54
2019-05-23T04:39:10.926Z,76.15
2019-05-23T04:41:42.903Z,76.12
2019-05-23T04:44:15.505Z,76.18
2019-05-23T04:46:47.385Z,75.36
2019-05-23T04:49:19.361Z,75.48
2019-05-23T04:51:51.593Z,75.55
2019-05-23T04:54:23.660Z,76.37
2019-05-23T04:56:56.601Z,75.94
2019-05-23T04:59:28.472Z,75.24
2019-05-23T05:02:00.849Z,75.25
2019-05-23T05:04:32.860Z,75.81
2019-05-23T05:07:05.097Z,75.23
2019-05-23T05:09:37.193Z,74.75
2019-05-23T05:12:09.549Z,74.66
2019-05-23T05:14:41.351Z,74.80
2019-05-23T05:17:13.606Z,74.72
2019-05-23T05:19:45.481Z,74.54
2019-05-23T05:22:17.016Z,74.13
2019-05-23T05:24:48.850Z,74.41
2019-05-23T05:27:21.241Z,74.17
2019-05-23T05:29:53.180Z,74.64
2019-05-23T05:32:42.883Z,74.35
2019-05-23T05:34:58.810Z,74.20
2019-05-23T05:37:30.679Z,74.32
2019-05-23T05:40:02.889Z,73.64
2019-05-23T05:42:36.173Z,73.56
2019-05-23T05:45:09.341Z,72.97
2019-05-23T05:47:41.526Z,73.18
2019-05-23T05:50:14.944Z,73.85
2019-05-23T05:52:46.821Z,73.95
2019-05-23T05:55:18.889Z,73.45
2019-05-23T05:57:50.757Z,73.45
2019-05-23T06:00:48.017Z,73.53
2019-05-23T06:03:19.941Z,73.83
2019-05-23T06:06:15.710Z,72.65
2019-05-23T06:08:49.805Z,73.48
2019-05-23T06:11:21.719Z,72.96
2019-05-23T06:13:54.184Z,72.29
2019-05-23T06:16:26.339Z,72.81
2019-05-23T06:18:59.443Z,72.42
2019-05-23T06:21:31.322Z,71.52
2019-05-23T06:24:03.652Z,71.10
2019-05-23T06:26:35.455Z,71.97
2019-05-23T06:29:07.347Z,71.41
2019-05-23T06:31:40.173Z,71.36
2019-05-23T06:34:12.964Z,72.76
2019-05-23T06:36:44.931Z,72.30
2019-05-23T06:39:16.841Z,72.16
2019-05-23T06:41:48.892Z,72.21
2019-05-23T06:44:20.935Z,71.91
2019-05-23T06:46:52.810Z,71.79
2019-05-23T06:49:24.684Z,70.20
2019-05-23T06:51:56.542Z,69.46
2019-05-23T06:54:28.478Z,69.46
2019-05-23T06:57:00.582Z,69.92
2019-05-23T06:59:32.482Z,69.00
2019-05-23T07:02:05.575Z,68.57
2019-05-23T07:04:37.559Z,68.44
2019-05-23T07:07:11.528Z,68.39
2019-05-23T07:09:43.370Z,67.72
2019-05-23T07:12:15.535Z,68.47
2019-05-23T07:14:47.497Z,68.13
2019-05-23T07:17:19.820Z,68.63
2019-05-23T07:19:51.764Z,68.72
2019-05-23T07:22:23.968Z,68.13
2019-05-23T07:24:58.526Z,67.22
2019-05-23T13:10:05.166Z,43.56
2019-05-23T13:12:37.500Z,44.46
2019-05-23T13:15:09.649Z,42.92
2019-05-23T13:17:41.453Z,42.71
2019-05-23T13:20:13.820Z,42.24
2019-05-23T13:22:45.675Z,45.34
2019-05-23T13:25:17.917Z,44.70
2019-05-23T13:27:49.762Z,42.06
2019-05-23T13:30:21.829Z,42.02
2019-05-23T13:32:53.813Z,42.30
2019-05-23T13:35:26.362Z,41.86
2019-05-23T13:37:58.371Z,44.49
2019-05-23T13:40:30.225Z,42.82
2019-05-23T13:43:06.798Z,43.23
2019-05-23T13:45:35.812Z,43.41
2019-05-23T13:48:07.673Z,44.65
2019-05-23T13:50:39.941Z,43.73
2019-05-23T13:53:12.763Z,45.69
2019-05-23T18:53:07.519Z,52.95
2019-05-23T18:55:40.258Z,53.46
2019-05-23T18:58:12.233Z,53.71
2019-05-23T19:01:14.216Z,52.63
2019-05-23T19:03:46.364Z,51.63
2019-05-23T19:06:18.282Z,51.47
2019-05-23T19:08:51.034Z,51.14
2019-05-23T19:11:23.307Z,51.25
2019-05-23T19:13:55.208Z,51.59
2019-05-23T19:16:28.636Z,50.89
2019-05-23T19:19:01.351Z,53.19
2019-05-23T19:21:34.185Z,52.60
2019-05-23T19:24:06.470Z,52.86
2019-05-23T19:26:39.328Z,53.59
2019-05-23T19:29:11.302Z,53.94
2019-05-23T19:31:44.096Z,54.63
2019-05-23T19:34:16.464Z,55.52
2019-05-23T19:36:49.382Z,55.20
2019-05-23T19:39:22.490Z,56.05
2019-05-23T19:41:54.449Z,56.36
2019-05-23T19:44:26.372Z,56.15
2019-05-23T19:46:58.269Z,56.24
2019-05-23T19:49:30.180Z,55.31
2019-05-23T19:52:01.971Z,56.21
2019-05-23T19:54:33.808Z,56.11
2019-05-23T19:57:05.619Z,56.26
2019-05-23T19:59:37.481Z,56.53
2019-05-23T20:02:24.785Z,55.76
2019-05-23T20:05:05.742Z,56.54
2019-05-23T20:07:37.837Z,56.37
2019-05-23T20:10:11.115Z,57.11
2019-05-23T20:12:45.343Z,56.99
2019-05-23T20:15:17.297Z,56.67
2019-05-23T20:17:51.651Z,57.14
2019-05-23T20:20:23.115Z,58.37
2019-05-23T20:22:55.073Z,57.96
2019-05-23T20:25:27.115Z,57.18
2019-05-23T20:27:58.907Z,58.37
2019-05-23T20:30:51.643Z,58.57
2019-05-23T20:33:23.611Z,58.21
2019-05-23T20:35:55.507Z,58.23
2019-05-23T20:38:27.765Z,60.21
2019-05-23T20:40:59.724Z,58.95
2019-05-23T20:43:31.596Z,59.93
2019-05-23T20:46:03.445Z,57.48
2019-05-23T20:48:35.629Z,57.84
2019-05-23T20:51:07.582Z,57.58
2019-05-23T20:53:39.716Z,57.54
2019-05-23T20:56:11.568Z,58.71
2019-05-23T20:58:43.417Z,58.19
2019-05-23T21:01:29.818Z,60.17
2019-05-23T21:04:02.624Z,59.39
2019-05-23T21:06:34.629Z,59.60
2019-05-23T21:09:08.145Z,60.70
2019-05-23T21:11:39.986Z,59.97
2019-05-23T21:14:11.841Z,59.68
2019-05-23T21:16:43.701Z,59.93
2019-05-23T21:19:15.495Z,59.91
2019-05-23T21:21:47.365Z,60.93
2019-05-23T21:24:19.438Z,60.91
2019-05-23T21:26:52.077Z,60.87
2019-05-23T21:29:24.047Z,61.08
2019-05-23T21:31:55.916Z,61.76
2019-05-23T21:34:27.768Z,61.81
2019-05-23T21:36:59.625Z,62.09
2019-05-23T21:39:31.482Z,61.50
2019-05-23T21:42:03.800Z,61.95
2019-05-23T21:44:35.656Z,62.23
2019-05-23T21:47:10.457Z,62.42
2019-05-23T21:49:42.414Z,62.57
2019-05-23T21:52:14.344Z,62.83
2019-05-23T21:54:46.133Z,61.79
2019-05-23T21:57:17.926Z,61.97
2019-05-23T21:59:49.815Z,61.97
2019-05-23T22:02:30.510Z,62.09
2019-05-23T22:05:16.221Z,62.08
2019-05-23T22:07:48.068Z,62.88
2019-05-23T22:10:19.867Z,63.70
2019-05-23T22:13:04.040Z,63.32
2019-05-23T22:15:37.562Z,63.55
2019-05-23T22:18:09.409Z,62.99
2019-05-23T22:20:41.267Z,62.66
2019-05-23T22:23:14.308Z,62.52
2019-05-23T22:25:46.174Z,63.02
2019-05-23T22:28:18.096Z,62.82
2019-05-23T22:30:49.934Z,62.59
2019-05-23T22:33:23.764Z,62.66
2019-05-23T22:35:55.624Z,63.40
2019-05-23T22:38:27.476Z,63.33
2019-05-23T22:40:59.272Z,63.41
2019-05-23T22:43:31.198Z,63.58
2019-05-23T22:46:03.048Z,63.97
2019-05-23T22:48:34.912Z,63.50
2019-05-23T22:51:06.763Z,63.57
2019-05-23T22:53:38.611Z,63.57
2019-05-23T22:56:10.475Z,63.39
2019-05-23T22:58:42.307Z,62.42
2019-05-23T23:01:14.291Z,62.42
2019-05-23T23:03:46.174Z,63.72
2019-05-23T23:06:18.720Z,64.11
2019-05-23T23:08:51.583Z,63.00
2019-05-23T23:11:23.719Z,63.00
2019-05-23T23:13:55.773Z,62.79
2019-05-23T23:16:27.618Z,62.90
2019-05-23T23:18:59.584Z,60.92
2019-05-23T23:21:31.635Z,60.92
2019-05-23T23:24:03.408Z,61.95
2019-05-23T23:26:35.378Z,61.90
2019-05-23T23:29:07.541Z,61.19
2019-05-23T23:31:39.519Z,60.77
2019-05-23T23:34:11.577Z,61.61
2019-05-23T23:36:43.357Z,61.14
2019-05-23T23:39:15.211Z,61.52
2019-05-23T23:41:47.075Z,61.24
2019-05-23T23:44:20.824Z,61.04
2019-05-23T23:47:10.302Z,60.87
2019-05-23T23:49:59.428Z,61.04
2019-05-23T23:52:48.832Z,61.14
2019-05-23T23:55:38.138Z,61.00
2019-05-23T23:58:09.428Z,61.10
